createdAt,value
2018-06-16T00:00:51.968Z,0.00
2018-06-16T00:01:51.995Z,0.00
2018-06-16T00:02:52.020Z,0.00
2018-06-16T00:03:52.046Z,0.00
2018-06-16T00:04:52.061Z,0.00
2018-06-16T00:05:52.088Z,0.00
2018-06-16T00:06:52.130Z,0.00
2018-06-16T00:07:52.137Z,0.00
2018-06-16T00:08:52.169Z,0.00
2018-06-16T00:09:52.180Z,0.00
2018-06-16T00:10:52.203Z,0.00
2018-06-16T00:11:52.241Z,0.00
2018-06-16T00:12:52.255Z,0.00
2018-06-16T00:13:52.281Z,0.00
2018-06-16T00:14:52.294Z,0.00
2018-06-16T00:15:52.320Z,0.00
2018-06-16T00:16:52.349Z,0.00
2018-06-16T00:17:52.372Z,0.00
2018-06-16T00:18:52.385Z,0.00
2018-06-16T00:19:52.411Z,0.00
2018-06-16T00:20:52.438Z,0.00
2018-06-16T00:21:52.462Z,0.00
2018-06-16T00:22:52.477Z,0.00
2018-06-16T00:23:52.503Z,0.00
2018-06-16T00:24:52.529Z,0.00
2018-06-16T00:25:52.555Z,0.00
2018-06-16T00:26:52.580Z,0.00
2018-06-16T00:27:52.593Z,0.00
2018-06-16T00:28:52.620Z,0.00
2018-06-16T00:29:52.645Z,0.00
2018-06-16T00:30:52.672Z,0.00
2018-06-16T00:31:52.698Z,0.00
2018-06-16T00:32:52.713Z,0.00
2018-06-16T00:33:52.737Z,0.00
2018-06-16T00:34:52.763Z,0.00
2018-06-16T00:35:52.792Z,0.00
2018-06-16T00:36:52.801Z,0.00
2018-06-16T00:37:52.827Z,0.00
2018-06-16T00:38:52.854Z,0.00
2018-06-16T00:39:52.879Z,0.00
2018-06-16T00:40:52.906Z,0.00
2018-06-16T00:41:52.930Z,0.00
2018-06-16T00:42:52.950Z,0.00
2018-06-16T00:43:52.971Z,0.00
2018-06-16T00:44:53.000Z,0.00
2018-06-16T00:45:53.010Z,0.00
2018-06-16T00:46:53.036Z,0.00
2018-06-16T00:47:53.064Z,0.00
2018-06-16T00:48:53.088Z,0.00
2018-06-16T00:49:53.104Z,0.00
2018-06-16T00:50:53.128Z,0.00
2018-06-16T00:51:53.158Z,0.00
2018-06-16T00:52:53.226Z,0.00
2018-06-16T00:53:53.206Z,0.00
2018-06-16T00:54:53.220Z,0.00
2018-06-16T00:55:53.245Z,0.00
2018-06-16T00:56:53.270Z,0.00
2018-06-16T00:57:53.297Z,0.00
2018-06-16T00:58:53.311Z,0.00
2018-06-16T00:59:53.336Z,0.00
2018-06-16T01:00:53.362Z,0.00
2018-06-16T01:01:53.389Z,0.00
2018-06-16T01:02:53.401Z,0.00
2018-06-16T01:03:53.430Z,0.00
2018-06-16T01:04:53.453Z,0.00
2018-06-16T01:05:53.480Z,0.00
2018-06-16T01:06:53.494Z,0.00
2018-06-16T01:07:53.518Z,0.00
2018-06-16T01:08:53.545Z,0.00
2018-06-16T01:09:53.571Z,0.00
2018-06-16T01:10:53.584Z,0.00
2018-06-16T01:11:53.609Z,0.00
2018-06-16T01:12:53.635Z,0.00
2018-06-16T01:13:53.661Z,0.00
2018-06-16T01:14:53.688Z,0.00
2018-06-16T01:15:53.705Z,0.00
2018-06-16T01:16:53.729Z,0.00
2018-06-16T01:17:53.754Z,0.00
2018-06-16T01:18:53.780Z,0.00
2018-06-16T01:19:53.795Z,0.00
2018-06-16T01:20:53.818Z,0.00
2018-06-16T01:21:53.844Z,0.00
2018-06-16T01:22:53.871Z,0.00
2018-06-16T01:23:53.896Z,0.00
2018-06-16T01:24:53.910Z,0.00
2018-06-16T01:25:53.937Z,0.00
2018-06-16T01:26:53.963Z,0.00
2018-06-16T01:27:53.976Z,0.00
2018-06-16T01:28:54.001Z,0.00
2018-06-16T01:29:54.027Z,0.00
2018-06-16T01:30:54.055Z,0.00
2018-06-16T01:31:54.067Z,0.00
2018-06-16T01:32:54.094Z,0.00
2018-06-16T01:33:54.119Z,0.00
2018-06-16T01:34:54.145Z,0.00
2018-06-16T01:35:54.158Z,0.00
2018-06-16T01:36:54.183Z,0.00
2018-06-16T01:37:54.225Z,0.00
2018-06-16T01:38:54.235Z,0.00
2018-06-16T01:39:54.251Z,0.00
2018-06-16T01:40:54.275Z,0.00
2018-06-16T01:41:54.301Z,0.00
2018-06-16T01:42:54.328Z,0.00
2018-06-16T01:43:54.342Z,0.00
2018-06-16T01:44:54.380Z,0.00
2018-06-16T01:45:54.393Z,0.00
2018-06-16T01:46:54.419Z,0.00
2018-06-16T01:47:54.433Z,0.00
2018-06-16T01:48:54.459Z,0.00
2018-06-16T01:49:54.484Z,0.00
2018-06-16T01:50:54.512Z,0.00
2018-06-16T01:51:54.523Z,0.00
2018-06-16T01:52:54.549Z,0.00
2018-06-16T01:53:54.575Z,0.00
2018-06-16T01:54:54.602Z,4.00
2018-06-16T01:55:54.616Z,4.00
2018-06-16T01:56:54.641Z,4.00
2018-06-16T01:57:54.667Z,4.00
2018-06-16T01:58:54.682Z,0.00
2018-06-16T01:59:54.706Z,0.00
2018-06-16T02:00:54.732Z,4.00
2018-06-16T02:01:54.757Z,4.00
2018-06-16T02:02:54.771Z,4.00
2018-06-16T02:03:54.798Z,4.00
2018-06-16T02:04:54.823Z,4.00
2018-06-16T02:05:54.850Z,4.00
2018-06-16T02:06:54.864Z,8.00
2018-06-16T02:07:54.901Z,4.00
2018-06-16T02:08:54.914Z,8.00
2018-06-16T02:09:54.941Z,8.00
2018-06-16T02:10:54.954Z,8.00
2018-06-16T02:11:54.981Z,12.00
2018-06-16T02:12:55.007Z,12.00
2018-06-16T02:13:55.033Z,12.00
2018-06-16T02:14:55.046Z,16.00
2018-06-16T02:15:55.071Z,16.00
2018-06-16T02:16:55.097Z,20.00
2018-06-16T02:17:55.123Z,20.00
2018-06-16T02:18:55.137Z,20.00
2018-06-16T02:19:55.163Z,28.00
2018-06-16T02:20:55.189Z,28.00
2018-06-16T02:21:55.202Z,32.00
2018-06-16T02:22:55.227Z,36.00
2018-06-16T02:23:55.253Z,36.00
2018-06-16T02:24:55.279Z,40.00
2018-06-16T02:25:55.293Z,44.00
2018-06-16T02:26:55.319Z,48.00
2018-06-16T02:27:55.345Z,56.00
2018-06-16T02:28:55.373Z,60.00
2018-06-16T02:29:55.385Z,68.00
2018-06-16T02:30:55.410Z,76.00
2018-06-16T02:31:55.444Z,80.00
2018-06-16T02:32:55.452Z,88.00
2018-06-16T02:33:55.477Z,96.00
2018-06-16T02:34:55.507Z,100.00
2018-06-16T02:35:55.528Z,112.00
2018-06-16T02:36:55.541Z,120.00
2018-06-16T02:37:55.571Z,128.00
2018-06-16T02:38:55.595Z,140.00
2018-06-16T02:39:55.620Z,156.00
2018-06-16T02:40:55.633Z,168.00
2018-06-16T02:41:55.662Z,184.00
2018-06-16T02:42:55.687Z,196.00
2018-06-16T02:43:55.699Z,208.00
2018-06-16T02:44:55.754Z,220.00
2018-06-16T02:45:55.755Z,236.00
2018-06-16T02:46:55.776Z,252.00
2018-06-16T02:47:55.790Z,268.00
2018-06-16T02:48:55.817Z,284.00
2018-06-16T02:49:55.841Z,300.00
2018-06-16T02:50:55.867Z,324.00
2018-06-16T02:51:55.880Z,340.00
2018-06-16T02:52:55.906Z,356.00
2018-06-16T02:53:55.932Z,376.00
2018-06-16T02:54:55.989Z,392.00
2018-06-16T02:55:55.973Z,412.00
2018-06-16T02:56:55.999Z,432.00
2018-06-16T02:57:56.026Z,456.00
2018-06-16T02:58:56.037Z,476.00
2018-06-16T02:59:56.063Z,500.00
2018-06-16T03:00:56.089Z,524.00
2018-06-16T03:01:56.115Z,544.00
2018-06-16T03:02:56.129Z,564.00
2018-06-16T03:03:56.155Z,576.00
2018-06-16T03:04:56.181Z,592.00
2018-06-16T03:05:56.206Z,604.00
2018-06-16T03:06:56.219Z,620.00
2018-06-16T03:07:56.245Z,644.00
2018-06-16T03:08:56.277Z,676.00
2018-06-16T03:09:56.297Z,708.00
2018-06-16T03:10:56.312Z,744.00
2018-06-16T03:11:56.340Z,772.00
2018-06-16T03:12:56.362Z,804.00
2018-06-16T03:13:56.377Z,844.00
2018-06-16T03:14:56.403Z,876.00
2018-06-16T03:15:56.428Z,912.00
2018-06-16T03:16:56.454Z,948.00
2018-06-16T03:17:56.471Z,980.00
2018-06-16T03:18:56.494Z,1008.00
2018-06-16T03:19:56.520Z,1036.00
2018-06-16T03:20:56.546Z,1064.00
2018-06-16T03:21:56.559Z,1092.00
2018-06-16T03:22:56.584Z,1116.00
2018-06-16T03:23:56.610Z,1140.00
2018-06-16T03:24:56.637Z,1172.00
2018-06-16T03:25:56.653Z,1224.00
2018-06-16T03:26:56.681Z,1288.00
2018-06-16T03:27:56.702Z,1356.00
2018-06-16T03:28:56.749Z,1408.00
2018-06-16T03:29:56.742Z,1440.00
2018-06-16T03:30:56.767Z,1460.00
2018-06-16T03:31:56.793Z,1480.00
2018-06-16T03:32:56.832Z,1516.00
2018-06-16T03:33:56.838Z,1568.00
2018-06-16T03:34:56.859Z,1632.00
2018-06-16T03:35:56.886Z,1708.00
2018-06-16T03:36:56.903Z,1788.00
2018-06-16T03:37:56.923Z,1860.00
2018-06-16T03:38:56.949Z,1900.00
2018-06-16T03:39:56.989Z,1932.00
2018-06-16T03:40:57.001Z,1948.00
2018-06-16T03:41:57.015Z,1968.00
2018-06-16T03:42:57.042Z,1988.00
2018-06-16T03:43:57.068Z,1992.00
2018-06-16T03:44:57.081Z,1996.00
2018-06-16T03:45:57.106Z,2012.00
2018-06-16T03:46:57.133Z,2040.00
2018-06-16T03:47:57.162Z,2084.00
2018-06-16T03:48:57.184Z,2152.00
2018-06-16T03:49:57.200Z,2220.00
2018-06-16T03:50:57.224Z,2296.00
2018-06-16T03:51:57.250Z,2360.00
2018-06-16T03:52:57.276Z,2428.00
2018-06-16T03:53:57.289Z,2484.00
2018-06-16T03:54:57.315Z,2544.00
2018-06-16T03:55:57.340Z,2596.00
2018-06-16T03:56:57.368Z,2644.00
2018-06-16T03:57:57.380Z,2692.00
2018-06-16T03:58:57.407Z,2744.00
2018-06-16T03:59:57.433Z,2796.00
2018-06-16T04:00:57.458Z,2848.00
2018-06-16T04:01:57.474Z,2892.00
2018-06-16T04:02:57.498Z,2936.00
2018-06-16T04:03:57.523Z,2992.00
2018-06-16T04:04:57.549Z,3040.00
2018-06-16T04:05:57.575Z,3084.00
2018-06-16T04:06:57.592Z,3124.00
2018-06-16T04:07:57.615Z,3184.00
2018-06-16T04:08:57.642Z,3248.00
2018-06-16T04:09:57.667Z,3316.00
2018-06-16T04:10:57.684Z,3380.00
2018-06-16T04:11:57.712Z,3420.00
2018-06-16T04:12:57.743Z,3460.00
2018-06-16T04:13:57.758Z,3516.00
2018-06-16T04:14:57.784Z,3580.00
2018-06-16T04:15:57.799Z,3660.00
2018-06-16T04:16:57.827Z,3756.00
2018-06-16T04:17:57.851Z,3876.00
2018-06-16T04:18:57.879Z,3988.00
2018-06-16T04:19:57.907Z,4096.00
2018-06-16T04:20:57.915Z,4200.00
2018-06-16T04:21:57.941Z,4280.00
2018-06-16T04:22:57.973Z,4368.00
2018-06-16T04:23:58.052Z,4468.00
2018-06-16T04:24:58.022Z,4576.00
2018-06-16T04:25:58.033Z,4688.00
2018-06-16T04:26:58.060Z,4820.00
2018-06-16T04:27:58.086Z,4956.00
2018-06-16T04:28:58.112Z,5076.00
2018-06-16T04:29:58.138Z,5156.00
2018-06-16T04:30:58.149Z,5200.00
2018-06-16T04:31:58.189Z,5216.00
2018-06-16T04:32:58.202Z,5228.00
2018-06-16T04:33:58.228Z,5288.00
2018-06-16T04:34:58.255Z,5388.00
2018-06-16T04:35:58.268Z,5504.00
2018-06-16T04:36:58.293Z,5600.00
2018-06-16T04:37:58.320Z,5660.00
2018-06-16T04:38:58.344Z,5728.00
2018-06-16T04:39:58.372Z,5832.00
2018-06-16T04:40:58.385Z,5972.00
2018-06-16T04:41:58.410Z,6096.00
2018-06-16T04:42:58.435Z,6176.00
2018-06-16T04:43:58.461Z,6200.00
2018-06-16T04:44:58.488Z,6212.00
2018-06-16T04:45:58.513Z,6240.00
2018-06-16T04:46:58.528Z,6304.00
2018-06-16T04:47:58.553Z,6412.00
2018-06-16T04:48:58.580Z,6556.00
2018-06-16T04:49:58.606Z,6704.00
2018-06-16T04:50:58.632Z,6828.00
2018-06-16T04:51:58.661Z,6920.00
2018-06-16T04:52:58.672Z,6996.00
2018-06-16T04:53:58.697Z,7116.00
2018-06-16T04:54:58.724Z,7300.00
2018-06-16T04:55:58.748Z,7504.00
2018-06-16T04:56:58.793Z,7668.00
2018-06-16T04:57:58.800Z,7748.00
2018-06-16T04:58:58.825Z,7796.00
2018-06-16T04:59:58.866Z,7872.00
2018-06-16T05:00:58.866Z,7968.00
2018-06-16T05:01:58.891Z,8060.00
2018-06-16T05:02:58.920Z,8180.00
2018-06-16T05:03:58.944Z,8324.00
2018-06-16T05:04:58.970Z,8512.00
2018-06-16T05:05:58.997Z,8756.00
2018-06-16T05:06:59.021Z,9020.00
2018-06-16T05:07:59.035Z,9260.00
2018-06-16T05:08:59.060Z,9416.00
2018-06-16T05:09:59.085Z,9460.00
2018-06-16T05:10:59.112Z,9408.00
2018-06-16T05:11:59.137Z,9352.00
2018-06-16T05:12:59.164Z,9392.00
2018-06-16T05:13:59.190Z,9464.00
2018-06-16T05:14:59.216Z,9588.00
2018-06-16T05:15:59.242Z,9804.00
2018-06-16T05:16:59.323Z,10080.00
2018-06-16T05:17:59.295Z,10420.00
2018-06-16T05:18:59.308Z,10784.00
2018-06-16T05:19:59.337Z,11112.00
2018-06-16T05:20:59.361Z,11352.00
2018-06-16T05:21:59.428Z,11468.00
2018-06-16T05:22:59.412Z,11476.00
2018-06-16T05:23:59.438Z,11520.00
2018-06-16T05:24:59.463Z,11668.00
2018-06-16T05:25:59.490Z,11888.00
2018-06-16T05:26:59.515Z,12140.00
2018-06-16T05:27:59.540Z,12360.00
2018-06-16T05:28:59.569Z,12536.00
2018-06-16T05:29:59.592Z,12684.00
2018-06-16T05:30:59.619Z,12828.00
2018-06-16T05:31:59.633Z,13048.00
2018-06-16T05:32:59.659Z,13224.00
2018-06-16T05:33:59.697Z,13352.00
2018-06-16T05:34:59.709Z,13452.00
2018-06-16T05:35:59.736Z,13784.00
2018-06-16T05:36:59.761Z,13608.00
2018-06-16T05:37:59.787Z,13700.00
2018-06-16T05:38:59.813Z,13756.00
2018-06-16T05:39:59.840Z,13884.00
2018-06-16T05:40:59.865Z,14124.00
2018-06-16T05:41:59.894Z,14308.00
2018-06-16T05:42:59.929Z,14472.00
2018-06-16T05:43:59.943Z,14580.00
2018-06-16T05:44:59.969Z,14764.00
2018-06-16T05:45:59.997Z,15032.00
2018-06-16T05:47:00.025Z,15304.00
2018-06-16T05:48:00.047Z,15516.00
2018-06-16T05:49:00.073Z,15696.00
2018-06-16T05:50:00.099Z,15828.00
2018-06-16T05:51:00.125Z,15996.00
2018-06-16T05:52:00.151Z,16196.00
2018-06-16T05:53:00.176Z,16424.00
2018-06-16T05:54:00.217Z,16640.00
2018-06-16T05:55:00.229Z,16844.00
2018-06-16T05:56:00.255Z,17012.00
2018-06-16T05:57:00.280Z,17376.00
2018-06-16T05:58:00.321Z,17760.00
2018-06-16T05:59:00.332Z,18080.00
2018-06-16T06:00:00.360Z,18272.00
2018-06-16T06:01:00.399Z,18336.00
2018-06-16T06:02:00.423Z,18336.00
2018-06-16T06:03:00.450Z,18272.00
2018-06-16T06:04:00.476Z,18240.00
2018-06-16T06:05:00.503Z,18432.00
2018-06-16T06:06:00.527Z,18784.00
2018-06-16T06:07:00.553Z,19168.00
2018-06-16T06:08:00.580Z,19456.00
2018-06-16T06:09:00.606Z,19392.00
2018-06-16T06:10:00.631Z,18912.00
2018-06-16T06:11:00.659Z,18496.00
2018-06-16T06:12:00.700Z,18208.00
2018-06-16T06:13:00.709Z,18112.00
2018-06-16T06:14:00.749Z,18144.00
2018-06-16T06:15:00.776Z,18336.00
2018-06-16T06:16:00.801Z,18592.00
2018-06-16T06:17:00.826Z,18816.00
2018-06-16T06:18:00.864Z,18944.00
2018-06-16T06:19:00.880Z,18944.00
2018-06-16T06:20:00.917Z,18592.00
2018-06-16T06:21:00.930Z,18272.00
2018-06-16T06:22:00.956Z,18144.00
2018-06-16T06:23:00.984Z,18176.00
2018-06-16T06:24:01.019Z,18304.00
2018-06-16T06:25:01.047Z,18592.00
2018-06-16T06:26:01.072Z,18976.00
2018-06-16T06:27:01.097Z,19424.00
2018-06-16T06:28:01.122Z,20000.00
2018-06-16T06:29:01.149Z,20512.00
2018-06-16T06:30:01.177Z,20800.00
2018-06-16T06:31:01.212Z,20864.00
2018-06-16T06:32:01.323Z,20736.00
2018-06-16T06:33:01.265Z,20576.00
2018-06-16T06:34:01.292Z,20576.00
2018-06-16T06:35:01.317Z,20768.00
2018-06-16T06:36:01.343Z,21216.00
2018-06-16T06:37:01.370Z,21760.00
2018-06-16T06:38:01.408Z,23840.00
2018-06-16T06:39:01.435Z,22432.00
2018-06-16T06:40:01.460Z,22304.00
2018-06-16T06:41:01.486Z,22016.00
2018-06-16T06:42:01.513Z,21792.00
2018-06-16T06:43:01.571Z,21728.00
2018-06-16T06:44:01.575Z,21568.00
2018-06-16T06:45:01.615Z,21312.00
2018-06-16T06:46:01.643Z,21120.00
2018-06-16T06:47:01.655Z,21088.00
2018-06-16T06:48:01.681Z,21152.00
2018-06-16T06:49:01.718Z,21248.00
2018-06-16T06:50:01.753Z,21408.00
2018-06-16T06:51:01.773Z,21504.00
2018-06-16T06:52:01.798Z,21568.00
2018-06-16T06:53:01.838Z,21472.00
2018-06-16T06:54:01.872Z,21248.00
2018-06-16T06:55:01.887Z,21088.00
2018-06-16T06:56:01.912Z,21056.00
2018-06-16T06:57:01.938Z,21216.00
2018-06-16T06:58:02.076Z,21472.00
2018-06-16T06:59:02.003Z,21824.00
2018-06-16T07:00:02.030Z,22112.00
2018-06-16T07:01:02.058Z,22368.00
2018-06-16T07:02:02.092Z,22592.00
2018-06-16T07:03:02.123Z,22752.00
2018-06-16T07:04:02.231Z,22816.00
2018-06-16T07:05:02.171Z,22784.00
2018-06-16T07:06:02.198Z,22816.00
2018-06-16T07:07:02.237Z,22752.00
2018-06-16T07:08:02.267Z,22752.00
2018-06-16T07:09:02.287Z,22944.00
2018-06-16T07:10:02.313Z,23488.00
2018-06-16T07:11:02.354Z,24416.00
2018-06-16T07:12:02.377Z,30496.00
2018-06-16T07:13:02.404Z,37344.00
2018-06-16T07:14:02.431Z,36992.00
2018-06-16T07:15:02.469Z,28096.00
2018-06-16T07:16:02.495Z,27520.00
2018-06-16T07:17:02.521Z,28224.00
2018-06-16T07:18:02.559Z,29120.00
2018-06-16T07:19:02.584Z,30464.00
2018-06-16T07:20:02.610Z,29344.00
2018-06-16T07:21:02.650Z,29632.00
2018-06-16T07:22:02.675Z,30272.00
2018-06-16T07:23:02.704Z,31616.00
2018-06-16T07:24:02.740Z,48864.00
2018-06-16T07:25:02.764Z,33824.00
2018-06-16T07:26:02.793Z,34112.00
2018-06-16T07:27:02.866Z,34688.00
2018-06-16T07:28:02.855Z,42464.00
2018-06-16T07:29:02.884Z,32000.00
2018-06-16T07:30:02.920Z,30400.00
2018-06-16T07:31:02.945Z,29696.00
2018-06-16T07:32:02.973Z,29824.00
2018-06-16T07:33:03.011Z,30144.00
2018-06-16T07:34:03.037Z,29984.00
2018-06-16T07:35:03.075Z,27936.00
2018-06-16T07:36:03.104Z,27040.00
2018-06-16T07:37:03.142Z,26464.00
2018-06-16T07:38:03.165Z,25984.00
2018-06-16T07:39:03.192Z,27200.00
2018-06-16T07:40:03.229Z,26592.00
2018-06-16T07:41:03.255Z,31712.00
2018-06-16T07:42:03.282Z,60864.00
2018-06-16T07:43:03.324Z,48032.00
2018-06-16T07:44:03.347Z,40480.00
2018-06-16T07:45:03.386Z,46976.00
2018-06-16T07:46:03.409Z,41408.00
2018-06-16T07:47:03.436Z,42848.00
2018-06-16T07:48:03.475Z,38592.00
2018-06-16T07:49:03.503Z,45120.00
2018-06-16T07:50:03.542Z,43264.00
2018-06-16T07:51:03.570Z,43904.00
2018-06-16T07:52:03.603Z,45952.00
2018-06-16T07:53:03.629Z,48096.00
2018-06-16T07:54:03.667Z,43776.00
2018-06-16T07:55:03.693Z,46240.00
2018-06-16T07:56:03.731Z,47040.00
2018-06-16T07:57:03.770Z,45280.00
2018-06-16T07:58:03.795Z,56512.00
2018-06-16T07:59:03.835Z,44640.00
2018-06-16T08:00:03.864Z,45888.00
2018-06-16T08:01:03.898Z,54304.00
2018-06-16T08:02:03.925Z,65472.00
2018-06-16T08:03:03.964Z,66272.00
2018-06-16T08:04:04.002Z,49632.00
2018-06-16T08:05:04.028Z,57216.00
2018-06-16T08:06:04.068Z,54560.00
2018-06-16T08:07:04.093Z,46304.00
2018-06-16T08:08:04.130Z,46208.00
2018-06-16T08:09:04.170Z,51616.00
2018-06-16T08:10:04.195Z,81888.00
2018-06-16T08:11:04.233Z,46880.00
2018-06-16T08:12:04.272Z,47456.00
2018-06-16T08:13:04.300Z,52096.00
2018-06-16T08:14:04.336Z,60640.00
2018-06-16T08:15:04.375Z,47968.00
2018-06-16T08:16:04.402Z,59488.00
2018-06-16T08:17:04.439Z,50656.00
2018-06-16T08:18:04.486Z,48384.00
2018-06-16T08:19:04.516Z,66912.00
2018-06-16T08:20:04.542Z,51200.00
2018-06-16T08:21:04.581Z,52768.00
2018-06-16T08:22:04.618Z,50272.00
2018-06-16T08:23:04.646Z,45184.00
2018-06-16T08:24:04.684Z,44128.00
2018-06-16T08:25:04.721Z,48032.00
2018-06-16T08:26:04.760Z,46880.00
2018-06-16T08:27:04.790Z,46592.00
2018-06-16T08:28:04.824Z,45312.00
2018-06-16T08:29:04.863Z,46144.00
2018-06-16T08:30:04.901Z,48096.00
2018-06-16T08:31:04.928Z,50400.00
2018-06-16T08:32:04.965Z,46624.00
2018-06-16T08:33:05.006Z,46112.00
2018-06-16T08:34:05.043Z,44512.00
2018-06-16T08:35:05.069Z,43616.00
2018-06-16T08:36:05.107Z,42496.00
2018-06-16T08:37:05.145Z,43072.00
2018-06-16T08:38:05.183Z,45696.00
2018-06-16T08:39:05.210Z,43264.00
2018-06-16T08:40:05.249Z,41600.00
2018-06-16T08:41:05.287Z,41536.00
2018-06-16T08:42:05.312Z,43904.00
2018-06-16T08:43:05.361Z,41728.00
2018-06-16T08:44:05.389Z,59648.00
2018-06-16T08:45:05.417Z,57792.00
2018-06-16T08:46:05.454Z,52032.00
2018-06-16T08:47:05.493Z,51008.00
2018-06-16T08:48:05.534Z,51552.00
2018-06-16T08:49:05.557Z,51968.00
2018-06-16T08:50:05.595Z,63520.00
2018-06-16T08:51:05.659Z,51712.00
2018-06-16T08:52:05.672Z,50240.00
2018-06-16T08:53:05.698Z,45888.00
2018-06-16T08:54:05.738Z,46400.00
2018-06-16T08:55:05.777Z,50720.00
2018-06-16T08:56:05.814Z,50144.00
2018-06-16T08:57:05.852Z,63840.00
2018-06-16T08:58:05.877Z,65408.00
2018-06-16T08:59:05.917Z,60928.00
2018-06-16T09:00:05.954Z,57664.00
2018-06-16T09:01:05.994Z,54752.00
2018-06-16T09:02:06.031Z,58176.00
2018-06-16T09:03:06.070Z,67456.00
2018-06-16T09:04:06.097Z,60640.00
2018-06-16T09:05:06.134Z,62656.00
2018-06-16T09:06:06.175Z,54848.00
2018-06-16T09:07:06.211Z,70976.00
2018-06-16T09:08:06.250Z,94496.00
2018-06-16T09:09:06.288Z,72832.00
2018-06-16T09:10:06.327Z,94656.00
2018-06-16T09:11:06.355Z,86112.00
2018-06-16T09:12:06.392Z,76576.00
2018-06-16T09:13:06.430Z,60288.00
2018-06-16T09:14:06.468Z,72064.00
2018-06-16T09:15:06.508Z,94976.00
2018-06-16T09:16:06.545Z,85824.00
2018-06-16T09:17:06.587Z,97536.00
2018-06-16T09:18:06.621Z,83648.00
2018-06-16T09:19:06.660Z,66528.00
2018-06-16T09:20:06.698Z,70496.00
2018-06-16T09:21:06.737Z,74304.00
2018-06-16T09:22:06.774Z,85152.00
2018-06-16T09:23:06.813Z,80288.00
2018-06-16T09:24:06.853Z,70464.00
2018-06-16T09:25:06.891Z,66528.00
2018-06-16T09:26:06.928Z,59328.00
2018-06-16T09:27:06.968Z,82880.00
2018-06-16T09:28:07.012Z,63296.00
2018-06-16T09:29:07.045Z,56704.00
2018-06-16T09:30:07.095Z,65344.00
2018-06-16T09:31:07.145Z,63520.00
2018-06-16T09:32:07.185Z,99968.00
2018-06-16T09:33:07.216Z,90208.00
2018-06-16T09:34:07.249Z,43712.00
2018-06-16T09:35:07.286Z,53696.00
2018-06-16T09:36:07.375Z,35360.00
2018-06-16T09:37:07.364Z,29312.00
2018-06-16T09:38:07.403Z,28608.00
2018-06-16T09:39:07.440Z,28736.00
2018-06-16T09:40:07.480Z,36448.00
2018-06-16T09:41:07.517Z,112000.00
2018-06-16T09:42:07.589Z,102016.00
2018-06-16T09:43:07.599Z,71328.00
2018-06-16T09:44:07.634Z,67872.00
2018-06-16T09:45:07.673Z,67968.00
2018-06-16T09:46:07.711Z,51136.00
2018-06-16T09:47:07.748Z,55616.00
2018-06-16T09:48:07.791Z,79168.00
2018-06-16T09:49:07.825Z,67808.00
2018-06-16T09:50:07.864Z,76032.00
2018-06-16T09:51:07.902Z,75072.00
2018-06-16T09:52:07.945Z,81248.00
2018-06-16T09:53:07.992Z,99872.00
2018-06-16T09:54:08.031Z,86848.00
2018-06-16T09:55:08.069Z,115168.00
2018-06-16T09:56:08.106Z,72160.00
2018-06-16T09:57:08.146Z,95744.00
2018-06-16T09:58:08.186Z,78784.00
2018-06-16T09:59:08.223Z,59808.00
2018-06-16T10:00:08.262Z,71008.00
2018-06-16T10:01:08.314Z,84672.00
2018-06-16T10:02:08.350Z,79264.00
2018-06-16T10:03:08.388Z,100128.00
2018-06-16T10:04:08.431Z,100832.00
2018-06-16T10:05:08.465Z,68512.00
2018-06-16T10:06:08.517Z,103488.00
2018-06-16T10:07:08.555Z,69536.00
2018-06-16T10:08:08.593Z,45632.00
2018-06-16T10:09:08.633Z,101280.00
2018-06-16T10:10:08.685Z,106848.00
2018-06-16T10:11:08.721Z,86720.00
2018-06-16T10:12:08.760Z,71520.00
2018-06-16T10:13:08.811Z,84288.00
2018-06-16T10:14:08.850Z,59264.00
2018-06-16T10:15:08.887Z,41600.00
2018-06-16T10:16:08.927Z,49824.00
2018-06-16T10:17:08.977Z,49088.00
2018-06-16T10:18:09.016Z,19200.00
2018-06-16T10:19:09.054Z,18752.00
2018-06-16T10:20:09.118Z,18048.00
2018-06-16T10:21:09.152Z,17696.00
2018-06-16T10:22:09.182Z,18080.00
2018-06-16T10:23:09.232Z,18720.00
2018-06-16T10:24:09.272Z,19712.00
2018-06-16T10:25:09.311Z,21504.00
2018-06-16T10:26:09.349Z,22688.00
2018-06-16T10:27:09.386Z,22432.00
2018-06-16T10:28:09.426Z,21920.00
2018-06-16T10:29:09.505Z,22592.00
2018-06-16T10:30:09.502Z,23392.00
2018-06-16T10:31:09.540Z,23616.00
2018-06-16T10:32:09.579Z,23360.00
2018-06-16T10:33:09.616Z,22656.00
2018-06-16T10:34:09.657Z,21664.00
2018-06-16T10:35:09.696Z,22080.00
2018-06-16T10:36:09.733Z,25856.00
2018-06-16T10:37:09.771Z,41536.00
2018-06-16T10:38:09.810Z,34976.00
2018-06-16T10:39:09.836Z,31808.00
2018-06-16T10:40:09.875Z,29472.00
2018-06-16T10:41:09.913Z,26752.00
2018-06-16T10:42:09.959Z,26304.00
2018-06-16T10:43:09.990Z,105760.00
2018-06-16T10:44:10.028Z,27200.00
2018-06-16T10:45:10.054Z,27392.00
2018-06-16T10:46:10.092Z,29280.00
2018-06-16T10:47:10.130Z,35744.00
2018-06-16T10:48:10.169Z,42816.00
2018-06-16T10:49:10.196Z,28480.00
2018-06-16T10:50:10.246Z,25856.00
2018-06-16T10:51:10.273Z,24672.00
2018-06-16T10:52:10.311Z,23296.00
2018-06-16T10:53:10.348Z,22272.00
2018-06-16T10:54:10.376Z,20992.00
2018-06-16T10:55:10.414Z,20416.00
2018-06-16T10:56:10.452Z,20000.00
2018-06-16T10:57:10.481Z,19712.00
2018-06-16T10:58:10.517Z,19584.00
2018-06-16T10:59:10.554Z,19328.00
2018-06-16T11:00:10.592Z,18912.00
2018-06-16T11:01:10.627Z,18848.00
2018-06-16T11:02:10.657Z,19456.00
2018-06-16T11:03:10.696Z,20256.00
2018-06-16T11:04:10.735Z,21216.00
2018-06-16T11:05:10.762Z,21696.00
2018-06-16T11:06:10.799Z,22240.00
2018-06-16T11:07:10.824Z,22816.00
2018-06-16T11:08:10.863Z,27680.00
2018-06-16T11:09:10.895Z,23872.00
2018-06-16T11:10:10.930Z,23232.00
2018-06-16T11:11:10.968Z,22656.00
2018-06-16T11:12:10.992Z,22176.00
2018-06-16T11:13:11.030Z,21472.00
2018-06-16T11:14:11.056Z,20416.00
2018-06-16T11:15:11.095Z,19072.00
2018-06-16T11:16:11.133Z,18208.00
2018-06-16T11:17:11.161Z,18016.00
2018-06-16T11:18:11.199Z,18752.00
2018-06-16T11:19:11.224Z,20256.00
2018-06-16T11:20:11.262Z,22048.00
2018-06-16T11:21:11.288Z,24576.00
2018-06-16T11:22:11.327Z,27968.00
2018-06-16T11:23:11.364Z,29120.00
2018-06-16T11:24:11.394Z,30688.00
2018-06-16T11:25:11.428Z,31936.00
2018-06-16T11:26:11.455Z,34016.00
2018-06-16T11:27:11.494Z,34496.00
2018-06-16T11:28:11.519Z,35456.00
2018-06-16T11:29:11.558Z,34176.00
2018-06-16T11:30:11.595Z,33760.00
2018-06-16T11:31:11.622Z,35200.00
2018-06-16T11:32:11.660Z,62144.00
2018-06-16T11:33:11.687Z,41248.00
2018-06-16T11:34:11.724Z,89280.00
2018-06-16T11:35:11.765Z,35872.00
2018-06-16T11:36:11.789Z,33472.00
2018-06-16T11:37:11.827Z,31296.00
2018-06-16T11:38:11.855Z,29952.00
2018-06-16T11:39:11.893Z,29344.00
2018-06-16T11:40:11.943Z,29824.00
2018-06-16T11:41:11.956Z,32096.00
2018-06-16T11:42:11.995Z,33152.00
2018-06-16T11:43:12.033Z,41376.00
2018-06-16T11:44:12.059Z,32096.00
2018-06-16T11:45:12.098Z,32896.00
2018-06-16T11:46:12.135Z,32192.00
2018-06-16T11:47:12.161Z,32800.00
2018-06-16T11:48:12.201Z,34528.00
2018-06-16T11:49:12.238Z,36544.00
2018-06-16T11:50:12.279Z,36800.00
2018-06-16T11:51:12.304Z,34592.00
2018-06-16T11:52:12.342Z,34208.00
2018-06-16T11:53:12.366Z,37312.00
2018-06-16T11:54:12.406Z,32224.00
2018-06-16T11:55:12.444Z,30208.00
2018-06-16T11:56:12.469Z,28832.00
2018-06-16T11:57:12.509Z,27232.00
2018-06-16T11:58:12.547Z,26656.00
2018-06-16T11:59:12.573Z,25632.00
2018-06-16T12:00:12.613Z,25152.00
2018-06-16T12:01:12.651Z,25024.00
2018-06-16T12:02:12.689Z,25120.00
2018-06-16T12:03:12.717Z,24672.00
2018-06-16T12:04:12.752Z,23584.00
2018-06-16T12:05:12.779Z,21920.00
2018-06-16T12:06:12.818Z,20352.00
2018-06-16T12:07:12.854Z,19328.00
2018-06-16T12:08:12.882Z,18592.00